Hlavní strana
METAR-TAF:

METAR-TAF

Letiště :

Kumamoto, Japonsko

zeměpisná šířka: 32-50N, zeměpisná délka: 130-51E, výška: 193 m

Aktuální stav počasí

Zpráva byla vytvořena před 15 minutami, v 05:00 UTC
vítr z různých směrů 2 kt
Teplota 11°C
Vlhkost vzduchu 47%
Tlak 1024 hPa
Viditelnost 10 km a více
Žádná oblačnost pod 1500 m, nevyskytují se cumulonimby.

METAR: RJFT 210500Z VRB02KT CAVOK 11/M00 Q1024

Čas: 14:15 (05:15 UTC)

Předpověď počasí

Zpráva byla vytvořena před 6 hodinami a 8 minutami, v 23:07 UTC
Předpověď platná od 21 v 00 UTC do 22 v 06 UTC
Západoseverozápadní vítr 5 kt
Viditelnost 10 km a více
Skoro jasno ve výšce 4000 ft
Změna
od 21 v 08 UTC do 21 v 10 UTC
Východní vítr 5 kt

TAF: RJFT 202307Z 2100/2206 29005KT 9999 FEW040 BECMG 2108/2110 08005KT

Stav a předpovědi počasí z více než 4 000 letišť (zprávy METAR a TAF).

Červené a žluté tečky na mapě představují dostupné meteorologické stanice.

Když kurzor umístíte na tečku, zobrazí se název stanice.

Pak kliknutím zobrazíte stav a předpověď počasí.

Chcete-li změnit mapu, kliknutím na zelené tlačítko se znaménkem +mapu přiblížíte, kliknutím na zelené tlačítko se znaménkem – mapu oddálíte a kliknutím na zelené šipky přejdete na sousední mapy.


METAR-TAF: